Time;durP1;ratioP1;P1;durP2;ratioP2;P2;SDS_P1;SDS_P2;PMS_P1;PMS_P2;Temp;Humidity;BMP_temperature;BMP_pressure;BME280_temperature;BME280_humidity;BME280_pressure;Samples;Min_cycle;Max_cycle;Signal;HPM_P1;HPM_P2
2023/07/23 00:01:13;;;;;;;3.72;1.90;;;21.40;69.90;;;;;;5030916;28;20049;-60
2023/07/23 00:03:38;;;;;;;4.82;2.03;;;21.40;69.90;;;;;;5031816;28;20072;-61
2023/07/23 00:06:04;;;;;;;5.25;2.08;;;21.40;69.90;;;;;;5030822;28;20045;-61
2023/07/23 00:08:30;;;;;;;3.55;1.75;;;21.40;69.90;;;;;;5030443;28;20049;-60
2023/07/23 00:10:58;;;;;;;3.88;1.83;;;21.50;69.90;;;;;;5032146;28;20041;-60
2023/07/23 00:13:25;;;;;;;4.45;2.28;;;21.40;69.90;;;;;;5014804;28;20076;-60
2023/07/23 00:15:50;;;;;;;3.47;1.42;;;21.40;69.80;;;;;;5022689;28;20060;-60
2023/07/23 00:18:16;;;;;;;3.60;2.05;;;21.40;69.80;;;;;;5031227;28;20397;-60
2023/07/23 00:20:41;;;;;;;3.63;1.77;;;21.40;69.80;;;;;;5030804;28;20045;-60
2023/07/23 00:23:07;;;;;;;4.15;2.10;;;21.40;69.80;;;;;;5031668;28;20038;-60
2023/07/23 00:25:33;;;;;;;4.13;2.30;;;21.40;69.80;;;;;;5030266;28;20038;-60
2023/07/23 00:27:58;;;;;;;3.97;1.90;;;21.40;69.70;;;;;;5020073;28;20042;-60
2023/07/23 00:30:24;;;;;;;4.15;2.00;;;21.40;69.80;;;;;;5013128;28;20444;-61
2023/07/23 00:32:49;;;;;;;4.50;2.08;;;21.40;69.70;;;;;;5034449;28;20069;-60
2023/07/23 00:35:15;;;;;;;4.10;1.80;;;21.40;69.80;;;;;;5034708;28;20041;-61
2023/07/23 00:37:40;;;;;;;4.10;1.73;;;21.40;69.70;;;;;;5033576;28;20037;-60
2023/07/23 00:40:07;;;;;;;4.80;1.80;;;21.40;69.70;;;;;;5034424;28;20037;-61
2023/07/23 00:42:33;;;;;;;4.15;1.83;;;21.40;69.70;;;;;;5032683;28;20044;-61
2023/07/23 00:44:59;;;;;;;3.55;1.98;;;21.40;69.70;;;;;;5034576;28;20033;-60
2023/07/23 00:47:24;;;;;;;2.85;1.83;;;21.40;69.70;;;;;;5033903;28;20124;-61
2023/07/23 00:49:50;;;;;;;4.32;1.92;;;21.40;69.70;;;;;;5032840;28;20096;-61
2023/07/23 00:52:15;;;;;;;4.30;2.03;;;21.40;69.70;;;;;;5034527;28;20132;-61
2023/07/23 00:54:41;;;;;;;2.88;1.73;;;21.40;69.70;;;;;;5033557;28;20033;-61
2023/07/23 00:57:09;;;;;;;4.63;2.40;;;21.40;69.70;;;;;;5031468;28;20547;-61
2023/07/23 00:59:35;;;;;;;4.05;1.88;;;21.40;69.60;;;;;;5014978;28;20049;-60
2023/07/23 01:02:01;;;;;;;4.05;2.10;;;21.30;69.60;;;;;;5013482;28;20033;-60
2023/07/23 01:04:28;;;;;;;5.35;2.38;;;21.30;69.50;;;;;;5033428;28;20060;-61
2023/07/23 01:06:54;;;;;;;4.13;2.03;;;21.40;69.60;;;;;;5016882;28;20060;-61
2023/07/23 01:09:19;;;;;;;3.78;1.80;;;21.30;69.60;;;;;;5030885;28;20056;-61
2023/07/23 01:11:45;;;;;;;3.47;1.88;;;21.30;69.60;;;;;;5032937;28;20045;-61
2023/07/23 01:14:10;;;;;;;4.15;1.65;;;21.30;69.50;;;;;;5033345;28;20478;-61
2023/07/23 01:16:36;;;;;;;3.75;2.20;;;21.30;70.20;;;;;;5033267;28;20096;-60
2023/07/23 01:19:02;;;;;;;3.33;1.70;;;21.30;69.50;;;;;;5033191;28;20045;-61
2023/07/23 01:21:28;;;;;;;3.13;1.80;;;21.30;69.50;;;;;;5016540;28;20038;-61
2023/07/23 01:23:54;;;;;;;3.88;1.77;;;21.30;69.50;;;;;;5028232;28;20053;-61
2023/07/23 01:26:20;;;;;;;4.30;2.05;;;21.30;69.50;;;;;;5034408;28;20104;-60
2023/07/23 01:28:45;;;;;;;4.65;1.98;;;21.30;69.50;;;;;;5020338;28;20474;-60
2023/07/23 01:31:12;;;;;;;3.83;2.00;;;21.30;69.40;;;;;;5015225;28;20064;-61
2023/07/23 01:33:41;;;;;;;3.72;1.52;;;21.30;69.40;;;;;;5033537;28;20100;-61
2023/07/23 01:36:07;;;;;;;2.85;1.65;;;21.30;69.50;;;;;;5031751;28;20038;-61
2023/07/23 01:38:32;;;;;;;4.15;1.83;;;21.30;69.40;;;;;;5019264;28;20053;-61
2023/07/23 01:40:58;;;;;;;3.08;1.60;;;21.30;69.40;;;;;;4995722;28;20084;-60
2023/07/23 01:43:23;;;;;;;3.08;1.83;;;21.30;69.50;;;;;;5026748;28;20095;-61
2023/07/23 01:45:49;;;;;;;2.63;1.52;;;21.30;69.50;;;;;;5015442;28;20497;-61
2023/07/23 01:48:15;;;;;;;3.38;1.63;;;21.30;69.40;;;;;;5030734;28;20049;-61
2023/07/23 01:50:40;;;;;;;3.25;1.60;;;21.30;69.40;;;;;;5033411;28;20051;-61
2023/07/23 01:53:06;;;;;;;2.65;1.60;;;21.30;69.40;;;;;;5015292;28;20539;-61
2023/07/23 01:55:32;;;;;;;3.58;1.80;;;21.30;69.40;;;;;;5033628;28;20128;-61
2023/07/23 01:57:58;;;;;;;3.33;1.80;;;21.30;69.40;;;;;;5032552;28;20045;-61
2023/07/23 02:00:24;;;;;;;3.92;1.88;;;21.30;69.40;;;;;;5032145;28;20456;-60
2023/07/23 02:02:49;;;;;;;3.03;1.75;;;21.30;69.40;;;;;;5027493;28;20041;-61
2023/07/23 02:05:15;;;;;;;4.57;1.85;;;21.20;69.30;;;;;;5023096;28;20102;-61
2023/07/23 02:07:40;;;;;;;4.72;2.05;;;21.20;69.30;;;;;;5033323;28;20045;-61
2023/07/23 02:10:07;;;;;;;3.33;1.85;;;21.20;69.40;;;;;;5032623;28;20049;-61
2023/07/23 02:12:33;;;;;;;3.40;1.80;;;21.30;69.40;;;;;;5029486;28;20037;-61
2023/07/23 02:14:59;;;;;;;3.78;1.55;;;21.20;69.40;;;;;;5012561;28;20478;-61
2023/07/23 02:17:25;;;;;;;3.42;1.65;;;21.20;69.30;;;;;;5013267;28;20095;-61
2023/07/23 02:19:50;;;;;;;3.53;1.55;;;21.20;69.30;;;;;;5010712;28;20044;-60
2023/07/23 02:22:16;;;;;;;3.75;1.60;;;21.20;69.40;;;;;;5013817;28;20041;-61
2023/07/23 02:24:41;;;;;;;3.47;1.73;;;21.20;69.30;;;;;;5013497;28;20077;-61
2023/07/23 02:27:07;;;;;;;3.47;1.63;;;21.20;69.30;;;;;;5012728;28;20042;-61
2023/07/23 02:29:33;;;;;;;2.78;1.80;;;21.20;69.30;;;;;;5013413;28;20045;-61
2023/07/23 02:31:58;;;;;;;3.90;1.60;;;21.20;69.30;;;;;;5013058;28;20049;-61
2023/07/23 02:34:24;;;;;;;3.72;1.55;;;21.20;69.30;;;;;;5012612;28;20044;-61
2023/07/23 02:36:50;;;;;;;3.40;1.80;;;21.20;69.30;;;;;;5019153;28;20061;-60
2023/07/23 02:39:16;;;;;;;3.25;1.58;;;21.20;69.30;;;;;;5018251;28;20500;-60
2023/07/23 02:41:41;;;;;;;3.13;1.70;;;21.20;69.30;;;;;;5012511;28;20042;-60
2023/07/23 02:44:07;;;;;;;3.20;1.65;;;21.20;69.30;;;;;;5025500;28;20041;-60
2023/07/23 02:46:32;;;;;;;3.85;1.70;;;21.20;69.30;;;;;;5032314;28;20095;-61
2023/07/23 02:48:58;;;;;;;3.53;1.63;;;21.20;69.30;;;;;;5029091;28;20049;-61
2023/07/23 02:51:23;;;;;;;3.20;1.55;;;21.20;69.20;;;;;;5031685;28;20140;-61
2023/07/23 02:53:49;;;;;;;2.67;1.70;;;21.20;69.30;;;;;;5031732;28;20048;-61
2023/07/23 02:56:15;;;;;;;4.55;1.80;;;21.20;69.20;;;;;;5031641;28;20045;-61
2023/07/23 02:58:41;;;;;;;2.63;1.52;;;21.20;69.30;;;;;;5028421;28;20081;-61
2023/07/23 03:01:09;;;;;;;5.40;1.90;;;21.20;69.20;;;;;;5032089;28;20081;-61
2023/07/23 03:03:35;;;;;;;3.00;1.63;;;21.20;69.30;;;;;;5025286;28;20041;-61
2023/07/23 03:06:01;;;;;;;3.20;1.60;;;21.20;69.20;;;;;;5012311;28;20045;-61
2023/07/23 03:08:27;;;;;;;2.58;1.50;;;21.20;69.20;;;;;;5012227;28;20034;-61
2023/07/23 03:10:52;;;;;;;3.33;1.85;;;21.20;69.20;;;;;;5012285;28;20103;-60
2023/07/23 03:13:18;;;;;;;3.00;1.60;;;21.20;69.30;;;;;;5011538;28;20481;-61
2023/07/23 03:15:44;;;;;;;3.00;1.45;;;21.20;69.30;;;;;;5011468;28;20046;-61
2023/07/23 03:18:09;;;;;;;3.30;1.88;;;21.20;69.20;;;;;;5026539;28;20482;-60
2023/07/23 03:20:35;;;;;;;2.70;1.50;;;21.20;69.20;;;;;;5011169;28;20057;-61
2023/07/23 03:23:00;;;;;;;2.53;1.45;;;21.20;69.20;;;;;;5011972;28;20038;-61
2023/07/23 03:25:26;;;;;;;5.22;2.10;;;21.10;69.10;;;;;;5032407;28;20045;-61
2023/07/23 03:27:51;;;;;;;5.10;2.17;;;21.10;69.20;;;;;;5032254;28;20420;-62
2023/07/23 03:30:17;;;;;;;2.78;1.80;;;21.10;69.20;;;;;;5031340;28;20433;-60
2023/07/23 03:32:43;;;;;;;3.40;1.63;;;21.10;69.10;;;;;;5032176;28;20069;-61
2023/07/23 03:35:08;;;;;;;3.80;1.60;;;21.10;69.10;;;;;;5030662;28;20037;-60
2023/07/23 03:37:34;;;;;;;3.03;1.60;;;21.10;69.10;;;;;;5030623;28;20068;-60
2023/07/23 03:39:59;;;;;;;3.58;1.75;;;21.10;69.10;;;;;;5031925;28;20063;-61
2023/07/23 03:42:25;;;;;;;2.33;1.33;;;21.10;69.70;;;;;;5030798;28;20105;-61
2023/07/23 03:44:50;;;;;;;2.97;1.80;;;21.10;69.10;;;;;;5016030;28;20496;-60
2023/07/23 03:47:18;;;;;;;3.17;1.73;;;21.10;69.10;;;;;;5010678;28;20045;-61
2023/07/23 03:49:43;;;;;;;3.30;1.50;;;21.10;69.10;;;;;;5012055;28;20458;-61
2023/07/23 03:52:09;;;;;;;3.78;1.70;;;21.10;69.10;;;;;;5011756;28;20100;-60
2023/07/23 03:54:35;;;;;;;4.13;1.48;;;21.10;69.10;;;;;;5012271;28;20034;-61
2023/07/23 03:57:00;;;;;;;2.65;1.40;;;21.10;69.10;;;;;;5012056;28;20062;-61
2023/07/23 03:59:32;;;;;;;2.58;1.60;;;21.10;69.10;;;;;;5010501;28;20054;-61
2023/07/23 04:01:57;;;;;;;3.22;1.80;;;21.10;69.20;;;;;;5017503;28;20052;-60
2023/07/23 04:04:23;;;;;;;2.28;1.30;;;21.10;69.20;;;;;;5027692;28;20124;-61
2023/07/23 04:06:49;;;;;;;3.40;1.45;;;21.10;69.10;;;;;;5026680;28;20448;-62
2023/07/23 04:09:14;;;;;;;2.60;1.35;;;21.10;69.20;;;;;;5017640;28;20034;-61
2023/07/23 04:11:40;;;;;;;3.38;1.50;;;21.10;69.20;;;;;;5013521;28;20446;-61
2023/07/23 04:14:06;;;;;;;3.20;1.42;;;21.10;69.20;;;;;;5028342;28;20073;-62
2023/07/23 04:16:32;;;;;;;3.17;1.70;;;21.10;69.20;;;;;;5034750;28;20045;-62
2023/07/23 04:18:58;;;;;;;4.13;1.83;;;21.10;69.10;;;;;;5027168;28;20068;-62
2023/07/23 04:21:23;;;;;;;3.75;1.77;;;21.10;69.10;;;;;;5015817;28;20129;-62
2023/07/23 04:23:49;;;;;;;2.42;1.50;;;21.10;69.20;;;;;;5014336;28;20501;-62
2023/07/23 04:26:15;;;;;;;2.88;1.70;;;21.10;69.20;;;;;;5014619;28;20393;-61
2023/07/23 04:28:41;;;;;;;3.08;1.52;;;21.10;69.10;;;;;;5018789;28;20051;-62
2023/07/23 04:31:07;;;;;;;3.10;1.48;;;21.10;69.10;;;;;;5033323;28;20057;-62
2023/07/23 04:33:32;;;;;;;2.47;1.40;;;21.10;69.10;;;;;;5034345;28;20037;-62
2023/07/23 04:35:58;;;;;;;2.53;1.45;;;21.10;69.10;;;;;;5033161;28;20168;-62
2023/07/23 04:38:23;;;;;;;2.85;1.50;;;21.10;69.10;;;;;;5033035;28;20500;-62
2023/07/23 04:40:49;;;;;;;3.03;1.63;;;21.10;69.10;;;;;;5031882;28;20053;-63
2023/07/23 04:43:14;;;;;;;2.63;1.38;;;21.10;69.10;;;;;;5033912;28;20504;-62
2023/07/23 04:45:40;;;;;;;2.55;1.60;;;21.00;69.10;;;;;;5033244;28;20654;-62
2023/07/23 04:48:06;;;;;;;2.83;1.50;;;21.00;69.00;;;;;;5034470;28;20124;-62
2023/07/23 04:50:32;;;;;;;3.35;1.45;;;21.00;69.00;;;;;;5016955;28;20042;-62
2023/07/23 04:52:57;;;;;;;3.78;1.73;;;21.00;69.00;;;;;;5015079;28;20111;-62
2023/07/23 04:55:24;;;;;;;4.68;1.70;;;21.00;69.00;;;;;;5028308;28;20061;-62
2023/07/23 04:57:50;;;;;;;3.15;1.65;;;21.00;69.10;;;;;;5033084;28;20500;-62
2023/07/23 05:00:17;;;;;;;2.47;1.60;;;21.00;69.10;;;;;;5020349;28;20046;-62
2023/07/23 05:02:42;;;;;;;3.67;1.90;;;21.00;69.00;;;;;;5012747;28;20042;-62
2023/07/23 05:05:08;;;;;;;3.60;1.45;;;21.10;69.10;;;;;;5028021;28;20044;-62
2023/07/23 05:07:33;;;;;;;2.55;1.35;;;21.10;69.10;;;;;;5034161;28;20045;-62
2023/07/23 05:09:59;;;;;;;2.83;1.45;;;21.00;69.00;;;;;;5022033;28;20046;-62
2023/07/23 05:12:25;;;;;;;2.72;1.63;;;21.00;69.00;;;;;;5015027;28;20052;-62
2023/07/23 05:14:50;;;;;;;2.95;1.58;;;21.00;69.00;;;;;;5012748;28;20046;-62
2023/07/23 05:17:16;;;;;;;3.42;1.75;;;21.00;69.00;;;;;;5013250;28;20041;-62
2023/07/23 05:19:41;;;;;;;3.65;1.88;;;21.00;69.00;;;;;;5023423;28;20093;-62
2023/07/23 05:22:07;;;;;;;2.63;1.40;;;21.00;69.10;;;;;;5033376;28;20071;-63
2023/07/23 05:24:32;;;;;;;3.08;1.48;;;21.00;69.00;;;;;;5033687;28;20034;-62
2023/07/23 05:26:58;;;;;;;2.58;1.25;;;21.00;69.00;;;;;;5034449;28;20141;-62
2023/07/23 05:29:24;;;;;;;3.55;1.63;;;21.00;69.10;;;;;;5026891;28;20567;-63
2023/07/23 05:31:50;;;;;;;3.05;1.40;;;21.00;69.00;;;;;;5013417;28;20065;-62
2023/07/23 05:34:16;;;;;;;2.67;1.60;;;21.00;69.00;;;;;;5019148;28;20037;-62
2023/07/23 05:36:42;;;;;;;2.78;1.70;;;21.00;69.60;;;;;;5033050;28;20378;-63
2023/07/23 05:39:09;;;;;;;4.13;1.63;;;21.00;69.00;;;;;;5032648;28;20040;-63
2023/07/23 05:41:34;;;;;;;3.60;1.63;;;21.00;69.00;;;;;;5033458;28;20073;-62
2023/07/23 05:44:00;;;;;;;2.55;1.58;;;21.00;69.00;;;;;;5031243;28;20099;-62
2023/07/23 05:46:26;;;;;;;2.83;1.60;;;21.00;69.10;;;;;;5031919;28;20037;-61
2023/07/23 05:48:51;;;;;;;2.58;1.73;;;21.00;69.10;;;;;;5033125;28;20124;-62
2023/07/23 05:51:17;;;;;;;2.90;1.58;;;21.00;69.10;;;;;;5020895;28;20073;-62
2023/07/23 05:53:42;;;;;;;3.70;1.45;;;21.00;69.10;;;;;;5033827;28;20053;-62
2023/07/23 05:56:08;;;;;;;3.70;1.60;;;21.00;69.10;;;;;;5014624;28;20409;-61
2023/07/23 05:58:34;;;;;;;3.40;1.50;;;21.00;69.10;;;;;;5013167;28;20084;-61
2023/07/23 06:00:59;;;;;;;2.78;1.77;;;21.00;69.20;;;;;;5012357;28;20069;-62
2023/07/23 06:03:25;;;;;;;3.60;1.67;;;21.00;69.10;;;;;;5023001;28;20048;-62
2023/07/23 06:05:50;;;;;;;3.65;1.60;;;21.00;69.10;;;;;;5030538;28;20064;-62
2023/07/23 06:08:16;;;;;;;3.45;1.88;;;21.00;69.10;;;;;;5032419;28;20492;-62
2023/07/23 06:10:41;;;;;;;3.10;1.70;;;21.00;69.20;;;;;;5018651;28;20038;-62
2023/07/23 06:13:07;;;;;;;11.68;4.05;;;21.00;69.20;;;;;;5013099;28;20068;-62
2023/07/23 06:15:33;;;;;;;11.32;4.43;;;21.00;69.30;;;;;;5013293;28;20042;-62
2023/07/23 06:17:58;;;;;;;8.10;2.97;;;21.00;69.40;;;;;;5014010;28;20120;-62
2023/07/23 06:20:25;;;;;;;13.02;3.78;;;21.00;69.50;;;;;;5016830;28;20050;-62
2023/07/23 06:22:50;;;;;;;12.30;4.45;;;21.00;69.60;;;;;;5032832;28;20041;-63
2023/07/23 06:25:16;;;;;;;8.57;3.53;;;21.00;69.80;;;;;;5032187;28;20409;-62
2023/07/23 06:27:42;;;;;;;10.05;4.10;;;21.10;69.80;;;;;;5028251;28;20042;-60
2023/07/23 06:30:07;;;;;;;10.43;4.10;;;21.10;70.00;;;;;;5019715;28;20151;-61
2023/07/23 06:32:33;;;;;;;14.75;4.72;;;21.20;70.20;;;;;;5031712;28;20037;-61
2023/07/23 06:34:59;;;;;;;13.07;4.80;;;21.20;70.20;;;;;;5028531;28;20553;-61
2023/07/23 06:37:24;;;;;;;9.57;4.13;;;21.20;70.40;;;;;;5031519;28;20050;-63
2023/07/23 06:39:50;;;;;;;10.43;4.03;;;21.20;70.80;;;;;;5026652;28;20539;-63
2023/07/23 06:42:15;;;;;;;9.43;4.28;;;21.30;71.00;;;;;;5024243;28;20397;-60
2023/07/23 06:44:42;;;;;;;11.68;4.60;;;21.30;71.80;;;;;;5032154;28;20124;-60
2023/07/23 06:47:07;;;;;;;12.82;5.03;;;21.40;71.30;;;;;;5029193;28;20044;-60
2023/07/23 06:49:33;;;;;;;13.63;5.05;;;21.40;71.60;;;;;;5029367;28;20033;-63
2023/07/23 06:51:59;;;;;;;14.27;4.80;;;21.40;71.60;;;;;;5029605;28;20043;-60
2023/07/23 06:54:24;;;;;;;13.32;4.45;;;21.50;71.70;;;;;;5030693;28;20041;-61
2023/07/23 06:56:53;;;;;;;11.48;4.25;;;21.50;71.60;;;;;;5029001;28;20055;-61
2023/07/23 06:59:19;;;;;;;12.35;4.82;;;21.60;71.60;;;;;;5030889;28;20049;-61
2023/07/23 07:01:44;;;;;;;10.68;4.47;;;21.60;71.50;;;;;;5028558;28;20034;-61
2023/07/23 07:04:10;;;;;;;12.95;4.38;;;21.60;71.40;;;;;;5031263;28;20056;-62
2023/07/23 07:06:35;;;;;;;10.10;4.68;;;21.60;71.30;;;;;;5032272;28;20041;-61
2023/07/23 07:09:01;;;;;;;10.55;3.92;;;21.60;71.20;;;;;;5029549;28;20397;-61
2023/07/23 07:11:26;;;;;;;11.77;4.20;;;21.60;71.20;;;;;;5030442;28;20073;-61
2023/07/23 07:13:52;;;;;;;10.50;4.20;;;21.60;71.20;;;;;;5029956;28;20045;-60
2023/07/23 07:16:20;;;;;;;13.75;4.68;;;21.70;71.20;;;;;;5026617;28;20083;-60
2023/07/23 07:18:45;;;;;;;9.10;3.65;;;21.70;71.40;;;;;;5032279;28;20046;-64
2023/07/23 07:21:11;;;;;;;18.75;4.75;;;21.70;71.40;;;;;;5025310;28;20492;-60
2023/07/23 07:23:36;;;;;;;9.98;4.18;;;21.70;71.50;;;;;;5030991;28;20041;-63
2023/07/23 07:26:02;;;;;;;10.57;4.10;;;21.70;71.70;;;;;;5032016;28;20041;-62
2023/07/23 07:28:29;;;;;;;15.38;4.28;;;21.70;71.60;;;;;;5031611;28;20034;-61
2023/07/23 07:30:58;;;;;;;9.38;3.88;;;21.70;71.60;;;;;;5030187;28;20147;-61
2023/07/23 07:33:25;;;;;;;12.05;3.75;;;21.70;71.90;;;;;;5032508;28;20045;-60
2023/07/23 07:35:54;;;;;;;12.75;4.47;;;21.70;72.00;;;;;;5029517;28;20053;-61
2023/07/23 07:38:19;;;;;;;14.13;4.07;;;21.70;72.30;;;;;;5030117;28;20047;-61
2023/07/23 07:40:47;;;;;;;12.15;3.67;;;21.70;72.40;;;;;;5020017;28;20038;-61
2023/07/23 07:43:12;;;;;;;12.80;3.95;;;21.70;72.50;;;;;;5015923;28;20045;-61
2023/07/23 07:45:38;;;;;;;12.35;4.25;;;21.70;72.50;;;;;;5032121;28;20119;-61
2023/07/23 07:48:04;;;;;;;12.93;4.35;;;21.70;72.70;;;;;;5036376;28;20049;-61
2023/07/23 07:50:30;;;;;;;13.90;4.22;;;21.70;72.70;;;;;;5023685;28;20092;-62
2023/07/23 07:52:56;;;;;;;12.63;4.18;;;21.80;72.90;;;;;;5016428;28;20054;-61
2023/07/23 07:55:22;;;;;;;11.60;3.45;;;21.80;72.90;;;;;;5014911;28;20387;-62
2023/07/23 07:57:48;;;;;;;14.50;3.95;;;21.80;72.90;;;;;;5019163;28;20580;-61
2023/07/23 08:00:14;;;;;;;14.00;3.60;;;21.70;72.60;;;;;;5025648;28;20042;-61
2023/07/23 08:02:39;;;;;;;12.23;3.78;;;21.70;73.00;;;;;;5019085;28;20137;-61
2023/07/23 08:05:06;;;;;;;11.40;3.72;;;21.70;72.30;;;;;;5020967;28;20118;-61
2023/07/23 08:07:33;;;;;;;10.73;3.95;;;21.70;72.20;;;;;;5018806;28;20793;-61
2023/07/23 08:09:59;;;;;;;10.20;3.40;;;21.70;72.30;;;;;;5021063;28;20405;-61
2023/07/23 08:12:24;;;;;;;9.10;3.50;;;21.70;72.40;;;;;;5021856;28;20045;-60
2023/07/23 08:14:50;;;;;;;11.05;3.33;;;21.70;72.50;;;;;;5025712;28;20050;-60
2023/07/23 08:17:16;;;;;;;9.40;3.88;;;21.70;72.60;;;;;;5018979;28;21032;-60
2023/07/23 08:19:42;;;;;;;15.40;4.10;;;21.70;72.70;;;;;;5018307;28;20508;-60
2023/07/23 08:22:08;;;;;;;12.95;3.83;;;21.70;72.70;;;;;;5017774;28;20046;-61
2023/07/23 08:24:34;;;;;;;10.77;3.53;;;21.70;72.70;;;;;;5019294;28;20042;-60
2023/07/23 08:27:00;;;;;;;11.85;3.70;;;21.70;72.80;;;;;;5019748;28;20096;-60
2023/07/23 08:29:26;;;;;;;12.73;4.13;;;21.70;72.70;;;;;;5016924;28;20171;-61
2023/07/23 08:31:52;;;;;;;11.13;3.88;;;21.70;72.70;;;;;;5024674;28;20046;-60
2023/07/23 08:34:18;;;;;;;12.82;4.03;;;21.70;72.70;;;;;;5021718;28;20041;-62
2023/07/23 08:36:44;;;;;;;14.00;3.88;;;21.70;72.70;;;;;;5022706;28;20923;-61
2023/07/23 08:39:09;;;;;;;10.40;3.92;;;21.70;72.60;;;;;;5019539;28;20488;-61
2023/07/23 08:42:27;;;;;;;10.85;3.70;;;21.70;72.50;;;;;;5022005;28;20044;-61
2023/07/23 08:45:14;;;;;;;13.38;3.85;;;21.70;72.30;;;;;;5020494;28;20065;-59
2023/07/23 08:47:40;;;;;;;13.73;3.65;;;21.70;72.00;;;;;;5021692;28;20554;-59
2023/07/23 08:50:06;;;;;;;13.40;3.50;;;21.60;72.10;;;;;;5009294;28;20136;-59
2023/07/23 08:52:31;;;;;;;14.13;3.53;;;21.70;72.10;;;;;;5017458;28;20409;-60
2023/07/23 08:54:57;;;;;;;8.85;3.28;;;21.70;72.10;;;;;;5018216;28;20080;-60
2023/07/23 08:57:23;;;;;;;15.90;4.00;;;21.60;72.10;;;;;;5021273;28;20456;-60
2023/07/23 08:59:48;;;;;;;8.95;3.80;;;21.70;72.20;;;;;;5021537;28;20080;-60
2023/07/23 09:02:15;;;;;;;11.77;3.67;;;21.70;72.20;;;;;;5021341;28;20069;-60
2023/07/23 09:04:40;;;;;;;13.60;3.60;;;21.60;72.20;;;;;;5019918;28;20113;-60
2023/07/23 09:07:08;;;;;;;8.50;3.70;;;21.60;72.20;;;;;;5020296;28;20117;-61
2023/07/23 09:09:34;;;;;;;17.83;3.75;;;21.60;72.30;;;;;;5020359;28;20477;-60
2023/07/23 09:12:03;;;;;;;13.45;3.22;;;21.60;72.30;;;;;;5021380;28;20046;-60
2023/07/23 09:14:28;;;;;;;12.52;3.50;;;21.60;72.30;;;;;;5018580;28;20053;-60
2023/07/23 09:16:54;;;;;;;8.73;3.38;;;21.60;72.30;;;;;;5022472;28;20140;-60
2023/07/23 09:19:29;;;;;;;7.80;3.17;;;21.60;72.30;;;;;;5023040;28;20034;-60
2023/07/23 09:21:56;;;;;;;11.50;3.30;;;21.60;72.30;;;;;;5021119;28;20091;-60
2023/07/23 09:24:22;;;;;;;7.70;3.20;;;21.60;72.30;;;;;;5018051;28;20046;-60
2023/07/23 09:26:47;;;;;;;9.20;3.22;;;21.60;72.30;;;;;;5023634;28;20030;-60
2023/07/23 09:29:13;;;;;;;8.13;3.45;;;21.60;72.30;;;;;;5021422;28;20116;-60
2023/07/23 09:31:43;;;;;;;9.85;3.40;;;21.60;72.30;;;;;;5014793;28;20068;-60
2023/07/23 09:34:09;;;;;;;10.85;3.42;;;21.60;72.30;;;;;;5021452;28;20477;-60
2023/07/23 09:36:34;;;;;;;9.30;3.40;;;21.60;72.30;;;;;;5016635;28;20070;-60
2023/07/23 09:39:01;;;;;;;8.77;3.58;;;21.60;72.20;;;;;;5022472;28;20068;-60
2023/07/23 09:41:31;;;;;;;9.82;3.55;;;21.60;72.30;;;;;;5017841;28;20133;-61
2023/07/23 09:44:02;;;;;;;8.63;3.22;;;21.60;72.30;;;;;;5018722;28;20048;-61
2023/07/23 09:46:28;;;;;;;9.93;3.78;;;21.60;72.20;;;;;;5019975;28;20429;-61
2023/07/23 09:48:54;;;;;;;6.20;3.03;;;21.60;72.20;;;;;;5002615;28;20108;-60
2023/07/23 09:51:20;;;;;;;9.68;3.35;;;21.60;72.20;;;;;;5020343;28;20095;-60
2023/07/23 09:53:46;;;;;;;7.63;3.35;;;21.60;72.20;;;;;;5004373;28;20049;-60
2023/07/23 09:56:15;;;;;;;9.98;3.03;;;21.60;72.20;;;;;;5022096;28;20057;-60
2023/07/23 09:58:43;;;;;;;8.85;2.92;;;21.60;72.20;;;;;;5017164;28;20044;-63
2023/07/23 10:01:09;;;;;;;10.95;3.15;;;21.60;72.10;;;;;;5020219;28;20448;-60
2023/07/23 10:03:35;;;;;;;11.25;3.40;;;21.60;72.10;;;;;;5020134;28;20500;-60
2023/07/23 10:06:00;;;;;;;7.20;3.28;;;21.60;72.10;;;;;;5023960;28;20042;-60
2023/07/23 10:08:30;;;;;;;8.80;3.00;;;21.60;72.10;;;;;;5009489;28;20466;-60
2023/07/23 10:10:56;;;;;;;9.70;3.38;;;21.60;72.10;;;;;;5000478;28;20046;-60
2023/07/23 10:13:22;;;;;;;7.20;3.33;;;21.60;72.10;;;;;;5013107;28;20048;-60
2023/07/23 10:15:48;;;;;;;9.80;2.92;;;21.60;72.10;;;;;;5013096;28;20073;-60
2023/07/23 10:18:13;;;;;;;7.55;2.92;;;21.60;72.10;;;;;;5013024;28;20461;-60
2023/07/23 10:20:39;;;;;;;5.50;2.90;;;21.60;72.10;;;;;;5013055;28;20033;-61
2023/07/23 10:23:05;;;;;;;9.82;2.70;;;21.60;72.10;;;;;;5011986;28;20050;-60
2023/07/23 10:25:32;;;;;;;8.43;2.80;;;21.60;72.10;;;;;;5012792;28;20497;-60
2023/07/23 10:27:59;;;;;;;7.88;2.80;;;21.60;72.10;;;;;;5013576;28;20100;-60
2023/07/23 10:30:28;;;;;;;5.18;2.60;;;21.60;72.10;;;;;;5013448;28;20497;-60
2023/07/23 10:33:09;;;;;;;6.38;2.90;;;21.60;72.10;;;;;;5012640;28;20046;-61
2023/07/23 10:35:53;;;;;;;7.18;2.80;;;21.60;72.00;;;;;;5016178;28;20057;-61
2023/07/23 10:38:27;;;;;;;6.35;2.58;;;21.60;72.00;;;;;;5031240;28;20607;-60
2023/07/23 10:40:53;;;;;;;6.50;2.70;;;21.60;72.10;;;;;;5031255;28;20080;-60
2023/07/23 10:43:18;;;;;;;6.13;2.63;;;21.60;72.10;;;;;;5031920;28;20077;-61
2023/07/23 10:46:03;;;;;;;4.53;2.35;;;21.60;72.10;;;;;;5029944;28;20030;-60
2023/07/23 10:48:42;;;;;;;5.60;2.72;;;21.60;72.10;;;;;;5031074;28;20468;-60
2023/07/23 10:51:09;;;;;;;7.30;2.85;;;21.60;72.10;;;;;;5032364;28;20075;-61
2023/07/23 10:53:38;;;;;;;6.05;2.72;;;21.60;72.10;;;;;;5030440;28;20446;-60
2023/07/23 10:56:03;;;;;;;6.95;2.67;;;21.60;72.00;;;;;;5032245;28;20065;-61
2023/07/23 10:58:29;;;;;;;5.75;2.83;;;21.60;71.90;;;;;;5014255;28;20047;-61
2023/07/23 11:00:56;;;;;;;6.43;2.60;;;21.60;71.90;;;;;;5030673;28;20141;-61
2023/07/23 11:03:23;;;;;;;4.30;2.13;;;21.60;71.80;;;;;;5032262;28;20056;-61
2023/07/23 11:05:50;;;;;;;7.47;3.22;;;21.50;71.80;;;;;;5032379;28;20103;-60
2023/07/23 11:08:16;;;;;;;7.07;2.70;;;21.50;71.80;;;;;;5030602;28;20091;-60
2023/07/23 11:10:45;;;;;;;6.70;2.58;;;21.50;71.80;;;;;;5032011;28;20095;-60
2023/07/23 11:13:10;;;;;;;6.78;2.90;;;21.50;71.80;;;;;;5032104;28;20041;-60
2023/07/23 11:15:37;;;;;;;6.40;2.70;;;21.50;71.80;;;;;;5029358;28;20045;-60
2023/07/23 11:18:02;;;;;;;5.80;2.28;;;21.50;71.80;;;;;;5029874;28;20068;-60
2023/07/23 11:20:28;;;;;;;7.20;2.63;;;21.50;71.80;;;;;;5029434;28;20485;-60
2023/07/23 11:22:58;;;;;;;5.07;2.40;;;21.50;71.80;;;;;;5030328;28;20111;-61
2023/07/23 11:25:23;;;;;;;5.60;2.42;;;21.50;71.90;;;;;;5013733;28;20046;-61
2023/07/23 11:27:49;;;;;;;5.15;2.67;;;21.50;71.90;;;;;;5010422;28;20048;-60
2023/07/23 11:30:14;;;;;;;5.72;2.42;;;21.50;71.90;;;;;;5011663;28;20137;-60
2023/07/23 11:32:40;;;;;;;5.75;2.95;;;21.50;72.00;;;;;;4994124;28;20050;-60
2023/07/23 11:35:09;;;;;;;6.07;2.53;;;21.50;72.00;;;;;;5011880;28;20072;-61
2023/07/23 11:37:34;;;;;;;3.88;2.22;;;21.50;72.00;;;;;;5010863;28;20073;-61
2023/07/23 11:40:01;;;;;;;6.75;2.70;;;21.50;72.10;;;;;;5025983;28;20081;-60
2023/07/23 11:42:26;;;;;;;4.00;2.10;;;21.50;72.10;;;;;;5031352;28;20453;-61
2023/07/23 11:44:59;;;;;;;5.85;2.28;;;21.50;72.10;;;;;;5032011;28;20123;-60
2023/07/23 11:47:25;;;;;;;5.40;2.10;;;21.50;72.10;;;;;;5030378;28;20073;-61
2023/07/23 11:49:51;;;;;;;4.95;2.53;;;21.50;72.20;;;;;;5029503;28;20468;-60
2023/07/23 11:52:22;;;;;;;5.40;2.45;;;21.50;72.20;;;;;;5030203;28;20041;-60
2023/07/23 11:54:48;;;;;;;3.83;2.30;;;21.50;72.20;;;;;;5030257;28;20262;-61
2023/07/23 11:57:14;;;;;;;5.85;2.47;;;21.50;72.30;;;;;;5031557;28;20128;-61
2023/07/23 11:59:39;;;;;;;6.53;2.47;;;21.50;72.30;;;;;;5029793;28;20119;-60
2023/07/23 12:02:05;;;;;;;5.82;2.70;;;21.50;72.30;;;;;;5031780;28;20045;-61
2023/07/23 12:04:39;;;;;;;4.38;2.08;;;21.50;72.30;;;;;;5030854;28;20073;-61
2023/07/23 12:07:06;;;;;;;5.68;2.88;;;21.50;72.40;;;;;;5032051;28;20049;-61
2023/07/23 12:09:33;;;;;;;4.28;2.28;;;21.50;72.40;;;;;;5031717;28;20068;-60
2023/07/23 12:11:58;;;;;;;5.70;2.47;;;21.50;72.40;;;;;;5029754;28;20045;-60
2023/07/23 12:14:24;;;;;;;5.50;2.58;;;21.50;72.40;;;;;;5030305;28;20052;-60
2023/07/23 12:16:50;;;;;;;6.45;2.50;;;21.50;72.50;;;;;;5029857;28;20436;-61
2023/07/23 12:19:16;;;;;;;4.10;2.33;;;21.50;72.50;;;;;;5031672;28;20037;-61
2023/07/23 12:21:43;;;;;;;4.47;2.40;;;21.50;72.50;;;;;;5031644;28;20056;-60
2023/07/23 12:24:22;;;;;;;6.10;2.70;;;21.50;72.50;;;;;;5030502;28;20528;-60
2023/07/23 12:26:55;;;;;;;5.07;2.15;;;21.50;72.60;;;;;;5032268;28;20045;-60
2023/07/23 12:29:22;;;;;;;4.22;2.15;;;21.50;72.50;;;;;;5033817;28;20045;-60
2023/07/23 12:31:49;;;;;;;4.32;2.10;;;21.50;72.60;;;;;;5033921;28;20103;-61
2023/07/23 12:34:15;;;;;;;6.53;2.50;;;21.50;72.60;;;;;;5034676;28;20507;-60
2023/07/23 12:36:41;;;;;;;6.57;2.30;;;21.50;72.60;;;;;;5035233;28;20087;-61
2023/07/23 12:39:08;;;;;;;5.15;2.28;;;21.50;72.70;;;;;;5032771;28;20034;-61
2023/07/23 12:41:34;;;;;;;5.47;2.42;;;21.50;72.70;;;;;;5033719;28;20059;-60